sensor_id;sensor_type;location;lat;lon;timestamp;pressure;altitude;pressure_sealevel;temperature;humidity
13080;BME280;6606;49.154;9.280;2024-03-08T00:01:45;99662.56;;;2.74;100.00
13080;BME280;6606;49.154;9.280;2024-03-08T00:04:27;99660.94;;;2.70;100.00
13080;BME280;6606;49.154;9.280;2024-03-08T00:07:10;99660.03;;;2.69;100.00
13080;BME280;6606;49.154;9.280;2024-03-08T00:09:53;99659.34;;;2.62;100.00
13080;BME280;6606;49.154;9.280;2024-03-08T00:12:35;99654.09;;;2.62;100.00
13080;BME280;6606;49.154;9.280;2024-03-08T00:15:17;99658.59;;;2.57;100.00
13080;BME280;6606;49.154;9.280;2024-03-08T00:17:59;99655.28;;;2.49;100.00
13080;BME280;6606;49.154;9.280;2024-03-08T00:20:40;99654.66;;;2.38;100.00
13080;BME280;6606;49.154;9.280;2024-03-08T00:23:23;99650.13;;;2.44;100.00
13080;BME280;6606;49.154;9.280;2024-03-08T00:26:05;99651.00;;;2.45;100.00
13080;BME280;6606;49.154;9.280;2024-03-08T00:28:46;99646.97;;;2.30;100.00
13080;BME280;6606;49.154;9.280;2024-03-08T00:31:29;99644.53;;;2.22;100.00
13080;BME280;6606;49.154;9.280;2024-03-08T00:34:11;99644.31;;;2.32;100.00
13080;BME280;6606;49.154;9.280;2024-03-08T00:36:53;99637.34;;;2.31;100.00
13080;BME280;6606;49.154;9.280;2024-03-08T00:39:36;99637.44;;;2.28;100.00
13080;BME280;6606;49.154;9.280;2024-03-08T00:42:17;99631.44;;;2.22;100.00
13080;BME280;6606;49.154;9.280;2024-03-08T00:45:00;99632.31;;;2.21;100.00
13080;BME280;6606;49.154;9.280;2024-03-08T00:47:41;99633.22;;;2.20;100.00
13080;BME280;6606;49.154;9.280;2024-03-08T00:50:24;99627.06;;;2.21;100.00
13080;BME280;6606;49.154;9.280;2024-03-08T00:53:06;99621.91;;;2.18;100.00
13080;BME280;6606;49.154;9.280;2024-03-08T00:55:49;99624.72;;;2.09;100.00
13080;BME280;6606;49.154;9.280;2024-03-08T00:58:30;99614.38;;;2.03;100.00
13080;BME280;6606;49.154;9.280;2024-03-08T01:01:12;99616.09;;;2.04;100.00
13080;BME280;6606;49.154;9.280;2024-03-08T01:03:56;99609.09;;;2.05;100.00
13080;BME280;6606;49.154;9.280;2024-03-08T01:06:38;99607.41;;;2.04;100.00
13080;BME280;6606;49.154;9.280;2024-03-08T01:09:20;99607.50;;;1.97;100.00
13080;BME280;6606;49.154;9.280;2024-03-08T01:12:04;99604.94;;;1.96;100.00
13080;BME280;6606;49.154;9.280;2024-03-08T01:14:47;99599.88;;;1.87;100.00
13080;BME280;6606;49.154;9.280;2024-03-08T01:17:29;99595.47;;;1.90;100.00
13080;BME280;6606;49.154;9.280;2024-03-08T01:20:13;99592.94;;;1.86;100.00
13080;BME280;6606;49.154;9.280;2024-03-08T01:22:55;99584.16;;;1.87;100.00
13080;BME280;6606;49.154;9.280;2024-03-08T01:25:37;99575.56;;;1.82;100.00
13080;BME280;6606;49.154;9.280;2024-03-08T01:28:20;99580.03;;;1.76;100.00
13080;BME280;6606;49.154;9.280;2024-03-08T01:31:02;99573.91;;;1.77;100.00
13080;BME280;6606;49.154;9.280;2024-03-08T01:33:44;99569.56;;;1.76;100.00
13080;BME280;6606;49.154;9.280;2024-03-08T01:36:26;99567.22;;;1.64;100.00
13080;BME280;6606;49.154;9.280;2024-03-08T01:39:07;99559.38;;;1.63;100.00
13080;BME280;6606;49.154;9.280;2024-03-08T01:41:49;99556.91;;;1.56;100.00
13080;BME280;6606;49.154;9.280;2024-03-08T01:44:32;99559.53;;;1.55;100.00
13080;BME280;6606;49.154;9.280;2024-03-08T01:47:14;99556.91;;;1.55;100.00
13080;BME280;6606;49.154;9.280;2024-03-08T01:49:57;99553.34;;;1.59;100.00
13080;BME280;6606;49.154;9.280;2024-03-08T01:52:38;99556.81;;;1.61;100.00
13080;BME280;6606;49.154;9.280;2024-03-08T01:55:20;99553.22;;;1.64;100.00
13080;BME280;6606;49.154;9.280;2024-03-08T01:58:03;99549.69;;;1.66;100.00
13080;BME280;6606;49.154;9.280;2024-03-08T02:00:48;99552.44;;;1.62;100.00
13080;BME280;6606;49.154;9.280;2024-03-08T02:03:30;99537.66;;;1.59;100.00
13080;BME280;6606;49.154;9.280;2024-03-08T02:06:13;99543.81;;;1.55;100.00
13080;BME280;6606;49.154;9.280;2024-03-08T02:08:56;99530.75;;;1.55;100.00
13080;BME280;6606;49.154;9.280;2024-03-08T02:11:40;99524.72;;;1.51;100.00
13080;BME280;6606;49.154;9.280;2024-03-08T02:14:22;99523.88;;;1.51;100.00
13080;BME280;6606;49.154;9.280;2024-03-08T02:17:05;99515.19;;;1.49;100.00
13080;BME280;6606;49.154;9.280;2024-03-08T02:19:48;99506.53;;;1.45;100.00
13080;BME280;6606;49.154;9.280;2024-03-08T02:22:31;99510.78;;;1.51;100.00
13080;BME280;6606;49.154;9.280;2024-03-08T02:25:13;99511.59;;;1.53;100.00
13080;BME280;6606;49.154;9.280;2024-03-08T02:27:54;99513.56;;;1.42;100.00
13080;BME280;6606;49.154;9.280;2024-03-08T02:30:36;99509.28;;;1.39;100.00
13080;BME280;6606;49.154;9.280;2024-03-08T02:33:18;99504.03;;;1.41;100.00
13080;BME280;6606;49.154;9.280;2024-03-08T02:36:00;99503.19;;;1.39;100.00
13080;BME280;6606;49.154;9.280;2024-03-08T02:38:43;99500.53;;;1.40;100.00
13080;BME280;6606;49.154;9.280;2024-03-08T02:41:25;99498.09;;;1.31;100.00
13080;BME280;6606;49.154;9.280;2024-03-08T02:44:07;99495.53;;;1.29;100.00
13080;BME280;6606;49.154;9.280;2024-03-08T02:46:49;99489.53;;;1.24;100.00
13080;BME280;6606;49.154;9.280;2024-03-08T02:49:31;99491.25;;;1.25;100.00
13080;BME280;6606;49.154;9.280;2024-03-08T02:52:12;99482.47;;;1.29;100.00
13080;BME280;6606;49.154;9.280;2024-03-08T02:55:14;99485.94;;;1.28;100.00
13080;BME280;6606;49.154;9.280;2024-03-08T02:57:56;99491.13;;;1.31;100.00
13080;BME280;6606;49.154;9.280;2024-03-08T03:00:39;99480.56;;;1.34;100.00
13080;BME280;6606;49.154;9.280;2024-03-08T03:03:24;99481.63;;;1.27;100.00
13080;BME280;6606;49.154;9.280;2024-03-08T03:06:07;99478.88;;;1.33;100.00
13080;BME280;6606;49.154;9.280;2024-03-08T03:08:48;99471.94;;;1.32;100.00
13080;BME280;6606;49.154;9.280;2024-03-08T03:11:33;99474.41;;;1.37;100.00
13080;BME280;6606;49.154;9.280;2024-03-08T03:14:32;99472.69;;;1.38;100.00
13080;BME280;6606;49.154;9.280;2024-03-08T03:17:14;99469.19;;;1.37;100.00
13080;BME280;6606;49.154;9.280;2024-03-08T03:19:56;99471.78;;;1.39;100.00
13080;BME280;6606;49.154;9.280;2024-03-08T03:22:38;99461.38;;;1.36;100.00
13080;BME280;6606;49.154;9.280;2024-03-08T03:25:21;99470.19;;;1.31;100.00
13080;BME280;6606;49.154;9.280;2024-03-08T03:28:07;99469.31;;;1.31;100.00
13080;BME280;6606;49.154;9.280;2024-03-08T03:30:51;99455.38;;;1.30;100.00
13080;BME280;6606;49.154;9.280;2024-03-08T03:33:39;99454.41;;;1.34;100.00
13080;BME280;6606;49.154;9.280;2024-03-08T03:36:21;99451.00;;;1.32;100.00
13080;BME280;6606;49.154;9.280;2024-03-08T03:39:02;99452.72;;;1.33;100.00
13080;BME280;6606;49.154;9.280;2024-03-08T03:41:51;99452.72;;;1.33;100.00
13080;BME280;6606;49.154;9.280;2024-03-08T03:44:34;99451.00;;;1.32;100.00
13080;BME280;6606;49.154;9.280;2024-03-08T03:47:15;99447.47;;;1.33;100.00
13080;BME280;6606;49.154;9.280;2024-03-08T03:49:57;99451.91;;;1.30;100.00
13080;BME280;6606;49.154;9.280;2024-03-08T03:52:42;99447.56;;;1.29;100.00
13080;BME280;6606;49.154;9.280;2024-03-08T03:55:23;99442.50;;;1.21;100.00
13080;BME280;6606;49.154;9.280;2024-03-08T03:58:05;99434.63;;;1.23;100.00
13080;BME280;6606;49.154;9.280;2024-03-08T04:00:48;99433.78;;;1.22;100.00
13080;BME280;6606;49.154;9.280;2024-03-08T04:03:32;99433.63;;;1.28;100.00
13080;BME280;6606;49.154;9.280;2024-03-08T04:06:14;99429.13;;;1.35;100.00
13080;BME280;6606;49.154;9.280;2024-03-08T04:09:01;99430.06;;;1.32;100.00
13080;BME280;6606;49.154;9.280;2024-03-08T04:11:43;99431.06;;;1.27;100.00
13080;BME280;6606;49.154;9.280;2024-03-08T04:14:25;99433.56;;;1.31;100.00
13080;BME280;6606;49.154;9.280;2024-03-08T04:17:08;99432.69;;;1.31;100.00
13080;BME280;6606;49.154;9.280;2024-03-08T04:19:51;99431.84;;;1.30;100.00
13080;BME280;6606;49.154;9.280;2024-03-08T04:22:33;99428.41;;;1.28;100.00
13080;BME280;6606;49.154;9.280;2024-03-08T04:25:15;99427.56;;;1.26;100.00
13080;BME280;6606;49.154;9.280;2024-03-08T04:27:57;99433.63;;;1.28;100.00
13080;BME280;6606;49.154;9.280;2024-03-08T04:30:39;99434.56;;;1.26;100.00
13080;BME280;6606;49.154;9.280;2024-03-08T04:33:22;99422.38;;;1.25;100.00
13080;BME280;6606;49.154;9.280;2024-03-08T04:36:04;99432.16;;;1.15;100.00
13080;BME280;6606;49.154;9.280;2024-03-08T04:38:46;99416.41;;;1.18;100.00
13080;BME280;6606;49.154;9.280;2024-03-08T04:41:28;99423.56;;;1.10;100.00
13080;BME280;6606;49.154;9.280;2024-03-08T04:44:11;99420.06;;;1.11;100.00
13080;BME280;6606;49.154;9.280;2024-03-08T04:46:53;99413.16;;;1.07;100.00
13080;BME280;6606;49.154;9.280;2024-03-08T04:49:36;99407.94;;;1.07;100.00
13080;BME280;6606;49.154;9.280;2024-03-08T04:52:17;99414.78;;;1.14;100.00
13080;BME280;6606;49.154;9.280;2024-03-08T04:54:59;99405.94;;;1.18;100.00
13080;BME280;6606;49.154;9.280;2024-03-08T04:57:42;99406.94;;;1.14;100.00
13080;BME280;6606;49.154;9.280;2024-03-08T05:00:26;99419.25;;;1.07;100.00
13080;BME280;6606;49.154;9.280;2024-03-08T05:03:08;99413.16;;;1.07;100.00
13080;BME280;6606;49.154;9.280;2024-03-08T05:05:51;99405.47;;;0.99;100.00
13080;BME280;6606;49.154;9.280;2024-03-08T05:08:33;99406.22;;;1.06;100.00
13080;BME280;6606;49.154;9.280;2024-03-08T05:11:15;99400.31;;;0.98;100.00
13080;BME280;6606;49.154;9.280;2024-03-08T05:13:56;99404.56;;;1.02;100.00
13080;BME280;6606;49.154;9.280;2024-03-08T05:16:39;99403.53;;;1.09;100.00
13080;BME280;6606;49.154;9.280;2024-03-08T05:19:21;99405.31;;;1.07;100.00
13080;BME280;6606;49.154;9.280;2024-03-08T05:22:04;99400.03;;;1.10;100.00
13080;BME280;6606;49.154;9.280;2024-03-08T05:24:46;99401.00;;;1.06;100.00
13080;BME280;6606;49.154;9.280;2024-03-08T05:27:27;99395.81;;;1.03;100.00
13080;BME280;6606;49.154;9.280;2024-03-08T05:30:10;99397.41;;;1.10;100.00
13080;BME280;6606;49.154;9.280;2024-03-08T05:32:55;99391.38;;;1.06;100.00
13080;BME280;6606;49.154;9.280;2024-03-08T05:35:37;99398.41;;;1.04;100.00
13080;BME280;6606;49.154;9.280;2024-03-08T05:38:20;99385.41;;;1.00;100.00
13080;BME280;6606;49.154;9.280;2024-03-08T05:41:02;99395.03;;;0.99;100.00
13080;BME280;6606;49.154;9.280;2024-03-08T05:43:44;99392.47;;;0.98;100.00
13080;BME280;6606;49.154;9.280;2024-03-08T05:46:25;99386.50;;;0.89;100.00
13080;BME280;6606;49.154;9.280;2024-03-08T05:49:07;99389.88;;;0.95;100.00
13080;BME280;6606;49.154;9.280;2024-03-08T05:51:50;99390.03;;;0.87;100.00
13080;BME280;6606;49.154;9.280;2024-03-08T05:54:33;99388.19;;;0.92;100.00
13080;BME280;6606;49.154;9.280;2024-03-08T05:57:15;99396.16;;;0.87;100.00
13080;BME280;6606;49.154;9.280;2024-03-08T05:59:57;99389.13;;;0.89;100.00
13080;BME280;6606;49.154;9.280;2024-03-08T06:02:39;99392.50;;;0.95;100.00
13080;BME280;6606;49.154;9.280;2024-03-08T06:05:22;99382.88;;;0.97;100.00
13080;BME280;6606;49.154;9.280;2024-03-08T06:08:05;99387.09;;;1.04;100.00
13080;BME280;6606;49.154;9.280;2024-03-08T06:10:49;99389.00;;;0.96;100.00
13080;BME280;6606;49.154;9.280;2024-03-08T06:13:33;99380.06;;;1.06;100.00
13080;BME280;6606;49.154;9.280;2024-03-08T06:16:14;99371.25;;;1.10;100.00
13080;BME280;6606;49.154;9.280;2024-03-08T06:18:56;99379.88;;;1.15;100.00
13080;BME280;6606;49.154;9.280;2024-03-08T06:21:38;99378.06;;;1.17;100.00
13080;BME280;6606;49.154;9.280;2024-03-08T06:24:20;99372.16;;;1.09;100.00
13080;BME280;6606;49.154;9.280;2024-03-08T06:27:04;99372.84;;;1.17;100.00
13080;BME280;6606;49.154;9.280;2024-03-08T06:29:46;99373.78;;;1.13;100.00
13080;BME280;6606;49.154;9.280;2024-03-08T06:32:29;99379.72;;;1.21;100.00
13080;BME280;6606;49.154;9.280;2024-03-08T06:35:11;99380.59;;;1.22;100.00
13080;BME280;6606;49.154;9.280;2024-03-08T06:37:52;99372.59;;;1.29;100.00
13080;BME280;6606;49.154;9.280;2024-03-08T06:40:34;99374.06;;;1.40;100.00
13080;BME280;6606;49.154;9.280;2024-03-08T06:43:17;99379.19;;;1.46;100.00
13080;BME280;6606;49.154;9.280;2024-03-08T06:45:59;99382.41;;;1.57;100.00
13080;BME280;6606;49.154;9.280;2024-03-08T06:48:41;99375.50;;;1.53;100.00
13080;BME280;6606;49.154;9.280;2024-03-08T06:51:23;99384.94;;;1.60;100.00
13080;BME280;6606;49.154;9.280;2024-03-08T06:54:05;99371.66;;;1.69;100.00
13080;BME280;6606;49.154;9.280;2024-03-08T06:56:49;99381.78;;;1.82;100.00
13080;BME280;6606;49.154;9.280;2024-03-08T06:59:38;99372.13;;;1.85;100.00
13080;BME280;6606;49.154;9.280;2024-03-08T07:02:20;99381.19;;;2.06;100.00
13080;BME280;6606;49.154;9.280;2024-03-08T07:05:05;99381.91;;;2.11;100.00
13080;BME280;6606;49.154;9.280;2024-03-08T07:07:50;99390.38;;;2.22;100.00
13080;BME280;6606;49.154;9.280;2024-03-08T07:10:32;99373.06;;;2.17;100.00
13080;BME280;6606;49.154;9.280;2024-03-08T07:13:15;99372.50;;;2.38;100.00
13080;BME280;6606;49.154;9.280;2024-03-08T07:15:58;99381.13;;;2.42;100.00
13080;BME280;6606;49.154;9.280;2024-03-08T07:18:41;99386.81;;;2.58;100.00
13080;BME280;6606;49.154;9.280;2024-03-08T07:21:23;99382.28;;;2.63;100.00
13080;BME280;6606;49.154;9.280;2024-03-08T07:24:05;99383.53;;;2.81;100.00
13080;BME280;6606;49.154;9.280;2024-03-08T07:27:05;99377.88;;;2.95;100.00
13080;BME280;6606;49.154;9.280;2024-03-08T07:29:46;99375.59;;;2.84;100.00
13080;BME280;6606;49.154;9.280;2024-03-08T07:32:30;99369.84;;;3.30;100.00
13080;BME280;6606;49.154;9.280;2024-03-08T07:35:12;99358.66;;;3.52;100.00
13080;BME280;6606;49.154;9.280;2024-03-08T07:37:53;99367.28;;;4.09;100.00
13080;BME280;6606;49.154;9.280;2024-03-08T07:40:36;99356.81;;;6.74;100.00
13080;BME280;6606;49.154;9.280;2024-03-08T07:43:19;99356.25;;;6.68;100.00
13080;BME280;6606;49.154;9.280;2024-03-08T07:46:02;99347.38;;;8.17;100.00
13080;BME280;6606;49.154;9.280;2024-03-08T07:48:58;99348.75;;;7.72;100.00
13080;BME280;6606;49.154;9.280;2024-03-08T07:51:40;99353.19;;;6.77;100.00
13080;BME280;6606;49.154;9.280;2024-03-08T07:54:22;99349.38;;;6.63;100.00
13080;BME280;6606;49.154;9.280;2024-03-08T07:57:03;99344.16;;;6.23;100.00
13080;BME280;6606;49.154;9.280;2024-03-08T07:59:47;99345.63;;;5.67;100.00
13080;BME280;6606;49.154;9.280;2024-03-08T08:02:29;99341.03;;;5.72;100.00
13080;BME280;6606;49.154;9.280;2024-03-08T08:05:12;99336.53;;;5.08;100.00
13080;BME280;6606;49.154;9.280;2024-03-08T08:07:55;99336.97;;;5.19;100.00
13080;BME280;6606;49.154;9.280;2024-03-08T08:10:36;99335.84;;;5.26;100.00
13080;BME280;6606;49.154;9.280;2024-03-08T08:13:27;99337.41;;;5.30;100.00
13080;BME280;6606;49.154;9.280;2024-03-08T08:16:12;99326.53;;;5.40;100.00
13080;BME280;6606;49.154;9.280;2024-03-08T08:18:54;99321.34;;;5.37;100.00
13080;BME280;6606;49.154;9.280;2024-03-08T08:21:37;99332.88;;;5.56;100.00
13080;BME280;6606;49.154;9.280;2024-03-08T08:24:19;99329.75;;;5.89;100.00
13080;BME280;6606;49.154;9.280;2024-03-08T08:27:02;99326.41;;;6.47;100.00
13080;BME280;6606;49.154;9.280;2024-03-08T08:29:44;99321.34;;;6.01;100.00
13080;BME280;6606;49.154;9.280;2024-03-08T08:32:26;99332.94;;;5.97;100.00
13080;BME280;6606;49.154;9.280;2024-03-08T08:35:08;99328.09;;;6.48;100.00
13080;BME280;6606;49.154;9.280;2024-03-08T08:37:54;99319.63;;;6.21;100.00
13080;BME280;6606;49.154;9.280;2024-03-08T08:40:35;99327.00;;;6.12;100.00
13080;BME280;6606;49.154;9.280;2024-03-08T08:43:17;99317.47;;;6.70;100.00
13080;BME280;6606;49.154;9.280;2024-03-08T08:46:00;99324.13;;;6.58;100.00
13080;BME280;6606;49.154;9.280;2024-03-08T08:48:41;99311.38;;;6.28;100.00
13080;BME280;6606;49.154;9.280;2024-03-08T08:51:23;99319.28;;;6.28;100.00
13080;BME280;6606;49.154;9.280;2024-03-08T08:54:09;99316.97;;;6.41;100.00
13080;BME280;6606;49.154;9.280;2024-03-08T08:56:51;99309.34;;;6.14;100.00
13080;BME280;6606;49.154;9.280;2024-03-08T08:59:48;99308.00;;;6.45;100.00
13080;BME280;6606;49.154;9.280;2024-03-08T09:02:30;99307.75;;;6.10;100.00
13080;BME280;6606;49.154;9.280;2024-03-08T09:05:12;99307.47;;;6.37;100.00
13080;BME280;6606;49.154;9.280;2024-03-08T09:07:56;99299.56;;;6.37;100.00
13080;BME280;6606;49.154;9.280;2024-03-08T09:10:42;99302.81;;;6.23;100.00
13080;BME280;6606;49.154;9.280;2024-03-08T09:13:23;99292.81;;;6.50;100.00
13080;BME280;6606;49.154;9.280;2024-03-08T09:16:05;99283.34;;;6.46;100.00
13080;BME280;6606;49.154;9.280;2024-03-08T09:18:47;99284.28;;;7.21;100.00
13080;BME280;6606;49.154;9.280;2024-03-08T09:21:28;99278.75;;;7.44;100.00
13080;BME280;6606;49.154;9.280;2024-03-08T09:24:12;99271.78;;;7.43;100.00
13080;BME280;6606;49.154;9.280;2024-03-08T09:26:55;99274.84;;;7.34;100.00
13080;BME280;6606;49.154;9.280;2024-03-08T09:29:55;99278.38;;;6.78;100.00
13080;BME280;6606;49.154;9.280;2024-03-08T09:32:38;99274.28;;;7.08;100.00
13080;BME280;6606;49.154;9.280;2024-03-08T09:35:38;99271.31;;;7.87;100.00
13080;BME280;6606;49.154;9.280;2024-03-08T09:38:20;99257.69;;;7.06;100.00
13080;BME280;6606;49.154;9.280;2024-03-08T09:41:02;99254.59;;;7.16;100.00
13080;BME280;6606;49.154;9.280;2024-03-08T09:43:58;99261.78;;;7.31;100.00
13080;BME280;6606;49.154;9.280;2024-03-08T09:46:40;99251.63;;;7.41;100.00
13080;BME280;6606;49.154;9.280;2024-03-08T09:49:22;99254.09;;;7.26;100.00
13080;BME280;6606;49.154;9.280;2024-03-08T09:52:04;99251.22;;;7.31;100.00
13080;BME280;6606;49.154;9.280;2024-03-08T09:54:52;99240.06;;;7.43;100.00
13080;BME280;6606;49.154;9.280;2024-03-08T09:57:36;99247.91;;;7.45;100.00
13080;BME280;6606;49.154;9.280;2024-03-08T10:00:19;99252.97;;;6.94;100.00
13080;BME280;6606;49.154;9.280;2024-03-08T10:03:04;99250.00;;;6.64;100.00
13080;BME280;6606;49.154;9.280;2024-03-08T10:05:46;99242.03;;;7.02;100.00
13080;BME280;6606;49.154;9.280;2024-03-08T10:08:37;99230.66;;;7.55;100.00
13080;BME280;6606;49.154;9.280;2024-03-08T10:11:20;99227.09;;;7.73;100.00
13080;BME280;6606;49.154;9.280;2024-03-08T10:14:15;99227.69;;;7.61;100.00
13080;BME280;6606;49.154;9.280;2024-03-08T10:16:58;99232.00;;;8.14;97.00
13080;BME280;6606;49.154;9.280;2024-03-08T10:19:49;99232.44;;;7.55;100.00
13080;BME280;6606;49.154;9.280;2024-03-08T10:22:32;99220.16;;;7.71;100.00
13080;BME280;6606;49.154;9.280;2024-03-08T10:25:32;99217.34;;;7.39;100.00
13080;BME280;6606;49.154;9.280;2024-03-08T10:28:17;99210.84;;;7.46;100.00
13080;BME280;6606;49.154;9.280;2024-03-08T10:30:58;99212.06;;;8.25;100.00
13080;BME280;6606;49.154;9.280;2024-03-08T10:33:41;99208.38;;;8.76;90.68
13080;BME280;6606;49.154;9.280;2024-03-08T10:36:24;99207.00;;;8.69;87.31
13080;BME280;6606;49.154;9.280;2024-03-08T10:39:12;99198.63;;;8.93;88.69
13080;BME280;6606;49.154;9.280;2024-03-08T10:41:57;99208.41;;;8.43;90.58
13080;BME280;6606;49.154;9.280;2024-03-08T10:44:49;99196.03;;;8.44;91.42
13080;BME280;6606;49.154;9.280;2024-03-08T10:47:39;99199.84;;;9.03;87.09
13080;BME280;6606;49.154;9.280;2024-03-08T10:50:23;99194.00;;;9.12;82.46
13080;BME280;6606;49.154;9.280;2024-03-08T10:53:26;99189.97;;;7.92;93.27
13080;BME280;6606;49.154;9.280;2024-03-08T10:56:16;99189.03;;;8.43;92.38
13080;BME280;6606;49.154;9.280;2024-03-08T10:58:58;99181.91;;;8.76;87.99
13080;BME280;6606;49.154;9.280;2024-03-08T11:01:40;99179.06;;;8.79;87.65
13080;BME280;6606;49.154;9.280;2024-03-08T11:04:45;99173.78;;;8.64;90.30
13080;BME280;6606;49.154;9.280;2024-03-08T11:07:34;99172.50;;;8.87;93.88
13080;BME280;6606;49.154;9.280;2024-03-08T11:10:46;99174.56;;;8.97;85.51
13080;BME280;6606;49.154;9.280;2024-03-08T11:13:40;99163.88;;;8.99;83.74
13080;BME280;6606;49.154;9.280;2024-03-08T11:16:39;99172.22;;;8.44;91.53
13080;BME280;6606;49.154;9.280;2024-03-08T11:19:47;99158.97;;;8.75;90.60
13080;BME280;6606;49.154;9.280;2024-03-08T11:22:39;99145.72;;;9.07;94.56
13080;BME280;6606;49.154;9.280;2024-03-08T11:25:43;99155.78;;;9.02;87.66
13080;BME280;6606;49.154;9.280;2024-03-08T11:28:44;99141.66;;;9.32;90.59
13080;BME280;6606;49.154;9.280;2024-03-08T11:31:39;99138.25;;;9.30;85.83
13080;BME280;6606;49.154;9.280;2024-03-08T11:34:21;99139.13;;;9.14;85.14
13080;BME280;6606;49.154;9.280;2024-03-08T11:37:04;99127.38;;;8.88;90.67
13080;BME280;6606;49.154;9.280;2024-03-08T11:39:52;99120.00;;;9.09;91.00
13080;BME280;6606;49.154;9.280;2024-03-08T11:42:39;99125.88;;;9.00;89.50
13080;BME280;6606;49.154;9.280;2024-03-08T11:45:27;99112.84;;;9.11;89.05
13080;BME280;6606;49.154;9.280;2024-03-08T11:48:20;99120.72;;;8.97;95.06
13080;BME280;6606;49.154;9.280;2024-03-08T11:51:02;99116.16;;;9.15;95.79
13080;BME280;6606;49.154;9.280;2024-03-08T11:53:45;99101.63;;;9.36;87.12
13080;BME280;6606;49.154;9.280;2024-03-08T11:56:28;99105.31;;;9.34;87.91
13080;BME280;6606;49.154;9.280;2024-03-08T11:59:11;99095.28;;;9.39;86.92
13080;BME280;6606;49.154;9.280;2024-03-08T12:02:01;99082.25;;;9.50;84.61
13080;BME280;6606;49.154;9.280;2024-03-08T12:04:55;99081.13;;;9.54;86.68
13080;BME280;6606;49.154;9.280;2024-03-08T12:07:37;99073.84;;;9.58;78.54
13080;BME280;6606;49.154;9.280;2024-03-08T12:10:21;99077.72;;;9.66;82.27
13080;BME280;6606;49.154;9.280;2024-03-08T12:13:06;99067.31;;;9.63;81.72
13080;BME280;6606;49.154;9.280;2024-03-08T12:15:53;99065.03;;;9.72;87.11
13080;BME280;6606;49.154;9.280;2024-03-08T12:18:38;99058.50;;;9.77;80.30
13080;BME280;6606;49.154;9.280;2024-03-08T12:21:20;99064.34;;;9.97;86.86
13080;BME280;6606;49.154;9.280;2024-03-08T12:24:05;99053.25;;;10.04;75.88
13080;BME280;6606;49.154;9.280;2024-03-08T12:26:49;99047.38;;;9.99;81.51
13080;BME280;6606;49.154;9.280;2024-03-08T12:29:39;99034.44;;;9.80;81.82
13080;BME280;6606;49.154;9.280;2024-03-08T12:32:21;99039.00;;;10.20;80.53
13080;BME280;6606;49.154;9.280;2024-03-08T12:35:07;99038.09;;;10.48;80.11
13080;BME280;6606;49.154;9.280;2024-03-08T12:37:51;99025.94;;;10.71;74.13
13080;BME280;6606;49.154;9.280;2024-03-08T12:40:34;99023.91;;;10.62;74.76
13080;BME280;6606;49.154;9.280;2024-03-08T12:43:20;99023.66;;;10.25;76.55
13080;BME280;6606;49.154;9.280;2024-03-08T12:46:04;99019.81;;;10.29;73.83
13080;BME280;6606;49.154;9.280;2024-03-08T12:48:51;99012.47;;;10.20;78.07
13080;BME280;6606;49.154;9.280;2024-03-08T12:51:33;98996.53;;;10.20;78.69
13080;BME280;6606;49.154;9.280;2024-03-08T12:54:29;99008.75;;;10.49;75.18
13080;BME280;6606;49.154;9.280;2024-03-08T12:57:11;98999.34;;;10.85;74.33
13080;BME280;6606;49.154;9.280;2024-03-08T12:59:54;98998.91;;;10.91;70.26
13080;BME280;6606;49.154;9.280;2024-03-08T13:02:37;98988.88;;;10.42;75.67
13080;BME280;6606;49.154;9.280;2024-03-08T13:05:26;98983.38;;;10.45;74.18
13080;BME280;6606;49.154;9.280;2024-03-08T13:08:17;98977.56;;;10.53;69.26
13080;BME280;6606;49.154;9.280;2024-03-08T13:10:59;98965.66;;;10.46;77.04
13080;BME280;6606;49.154;9.280;2024-03-08T13:13:41;98954.97;;;10.33;74.68
13080;BME280;6606;49.154;9.280;2024-03-08T13:16:26;98957.41;;;10.63;79.10
13080;BME280;6606;49.154;9.280;2024-03-08T13:19:11;98951.50;;;10.72;74.46
13080;BME280;6606;49.154;9.280;2024-03-08T13:21:53;98956.34;;;10.66;69.94
13080;BME280;6606;49.154;9.280;2024-03-08T13:24:46;98954.81;;;11.01;69.73
13080;BME280;6606;49.154;9.280;2024-03-08T13:27:27;98948.22;;;10.94;70.25
13080;BME280;6606;49.154;9.280;2024-03-08T13:30:17;98945.88;;;11.28;68.45
13080;BME280;6606;49.154;9.280;2024-03-08T13:33:19;98932.59;;;10.77;69.04
13080;BME280;6606;49.154;9.280;2024-03-08T13:36:03;98924.75;;;11.14;68.43
13080;BME280;6606;49.154;9.280;2024-03-08T13:38:49;98921.44;;;10.97;67.33
13080;BME280;6606;49.154;9.280;2024-03-08T13:41:31;98926.53;;;11.13;67.64
13080;BME280;6606;49.154;9.280;2024-03-08T13:44:12;98921.84;;;10.78;67.01
13080;BME280;6606;49.154;9.280;2024-03-08T13:46:55;98921.44;;;10.85;67.72
13080;BME280;6606;49.154;9.280;2024-03-08T13:49:38;98909.44;;;11.05;65.92
13080;BME280;6606;49.154;9.280;2024-03-08T13:52:21;98910.28;;;11.05;67.24
13080;BME280;6606;49.154;9.280;2024-03-08T13:55:06;98903.28;;;11.04;65.77
13080;BME280;6606;49.154;9.280;2024-03-08T13:57:48;98892.63;;;11.17;62.86
13080;BME280;6606;49.154;9.280;2024-03-08T14:00:36;98899.53;;;11.32;64.79
13080;BME280;6606;49.154;9.280;2024-03-08T14:03:18;98885.06;;;11.60;64.43
13080;BME280;6606;49.154;9.280;2024-03-08T14:05:59;98878.03;;;11.35;62.20
13080;BME280;6606;49.154;9.280;2024-03-08T14:08:42;98890.66;;;11.32;61.51
13080;BME280;6606;49.154;9.280;2024-03-08T14:11:24;98876.69;;;11.17;62.51
13080;BME280;6606;49.154;9.280;2024-03-08T14:14:06;98874.41;;;11.36;61.39
13080;BME280;6606;49.154;9.280;2024-03-08T14:16:49;98875.63;;;11.07;64.55
13080;BME280;6606;49.154;9.280;2024-03-08T14:19:33;98859.72;;;11.43;62.49
13080;BME280;6606;49.154;9.280;2024-03-08T14:22:15;98865.16;;;11.29;60.78
13080;BME280;6606;49.154;9.280;2024-03-08T14:24:58;98860.84;;;11.52;61.72
13080;BME280;6606;49.154;9.280;2024-03-08T14:27:40;98857.91;;;11.68;61.91
13080;BME280;6606;49.154;9.280;2024-03-08T14:30:24;98844.50;;;11.94;60.42
13080;BME280;6606;49.154;9.280;2024-03-08T14:33:18;98836.19;;;11.98;63.46
13080;BME280;6606;49.154;9.280;2024-03-08T14:36:03;98832.75;;;12.09;60.44
13080;BME280;6606;49.154;9.280;2024-03-08T14:38:45;98836.91;;;11.76;58.51
13080;BME280;6606;49.154;9.280;2024-03-08T14:41:29;98825.88;;;11.94;60.21
13080;BME280;6606;49.154;9.280;2024-03-08T14:44:11;98821.09;;;11.75;59.01